CheckWX is a tool to help pilots better visualize weather data.  It is not intended as a substitute for an official pre-flight weather briefing.

17:59:26 UTC

KFLO TAF
Florence Regional Airport
Florence, South Carolina, USA
KFLO 171720Z 1718/1818 06006KT P6SM OVC014 FM172200 07005KT P6SM OVC009 FM180000 VRB04KT 6SM BR OVC006 FM180200 00000KT 3SM BR OVC005 FM181400 28009KT 6SM BR VCSH OVC006

Feb-17@
18:00 UTC

Feb-17 @ 18:00 UTC

Feb-17@
22:00 UTC

Feb-17 @ 22:00 UTC

KFLO 171720Z 1718/1818 06006KT P6SM OVC014
Wind
  • 060° at 6 KTS
Visibility
Greater than 6 SM
Cloud Levels
  • Overcast at 1,400' AGL

Feb-17@
22:00 UTC

Feb-17 @ 22:00 UTC

Feb-18@
00:00 UTC

Feb-18 @ 00:00 UTC

FM172200 07005KT P6SM OVC009

From

FromStandard forecast or significant change

Wind
  • 070° at 5 KTS
Visibility
Greater than 6 SM
Cloud Levels
  • Overcast at 900' AGL

Feb-18@
00:00 UTC

Feb-18 @ 00:00 UTC

Feb-18@
02:00 UTC

Feb-18 @ 02:00 UTC

FM180000 VRB04KT 6SM BR OVC006

From

FromStandard forecast or significant change

Wind
  • Variable at 4 KTS
Visibility
6 SM
Conditions
Mist
Cloud Levels
  • Overcast at 600' AGL

Feb-18@
02:00 UTC

Feb-18 @ 02:00 UTC

Feb-18@
14:00 UTC

Feb-18 @ 14:00 UTC

FM180200 00000KT 3SM BR OVC005

From

FromStandard forecast or significant change

Visibility
3 SM
Conditions
Mist
Cloud Levels
  • Overcast at 500' AGL

Feb-18@
14:00 UTC

Feb-18 @ 14:00 UTC

Feb-18@
18:00 UTC

Feb-18 @ 18:00 UTC

FM181400 28009KT 6SM BR VCSH OVC006

From

FromStandard forecast or significant change

Wind
  • 280° at 9 KTS
Visibility
6 SM
Conditions
Mist
Cloud Levels
  • Overcast at 600' AGL